sensor_id;sensor_type;location;lat;lon;timestamp;P1;durP1;ratioP1;P2;durP2;ratioP2
79410;SDS011;69635;50.964;6.948;2023-12-07T00:02:22;23.13;;;10.33;;
79410;SDS011;69635;50.964;6.948;2023-12-07T00:04:47;21.07;;;9.17;;
79410;SDS011;69635;50.964;6.948;2023-12-07T00:07:12;20.87;;;9.90;;
79410;SDS011;69635;50.964;6.948;2023-12-07T00:09:38;25.17;;;10.53;;
79410;SDS011;69635;50.964;6.948;2023-12-07T00:12:03;22.48;;;10.02;;
79410;SDS011;69635;50.964;6.948;2023-12-07T00:14:28;22.73;;;9.75;;
79410;SDS011;69635;50.964;6.948;2023-12-07T00:16:54;23.37;;;10.73;;
79410;SDS011;69635;50.964;6.948;2023-12-07T00:19:19;21.07;;;9.13;;
79410;SDS011;69635;50.964;6.948;2023-12-07T00:21:44;21.30;;;10.23;;
79410;SDS011;69635;50.964;6.948;2023-12-07T00:24:09;22.50;;;9.07;;
79410;SDS011;69635;50.964;6.948;2023-12-07T00:26:35;17.63;;;9.27;;
79410;SDS011;69635;50.964;6.948;2023-12-07T00:29:00;19.27;;;9.50;;
79410;SDS011;69635;50.964;6.948;2023-12-07T00:31:25;22.42;;;10.30;;
79410;SDS011;69635;50.964;6.948;2023-12-07T00:33:51;19.33;;;10.07;;
79410;SDS011;69635;50.964;6.948;2023-12-07T00:36:16;22.67;;;10.27;;
79410;SDS011;69635;50.964;6.948;2023-12-07T00:38:41;17.87;;;8.40;;
79410;SDS011;69635;50.964;6.948;2023-12-07T00:41:06;21.42;;;9.55;;
79410;SDS011;69635;50.964;6.948;2023-12-07T00:43:32;20.55;;;10.05;;
79410;SDS011;69635;50.964;6.948;2023-12-07T00:45:57;18.40;;;9.50;;
79410;SDS011;69635;50.964;6.948;2023-12-07T00:48:23;18.73;;;9.40;;
79410;SDS011;69635;50.964;6.948;2023-12-07T00:50:48;19.42;;;9.82;;
79410;SDS011;69635;50.964;6.948;2023-12-07T00:53:13;21.83;;;9.80;;
79410;SDS011;69635;50.964;6.948;2023-12-07T00:55:39;17.13;;;8.07;;
79410;SDS011;69635;50.964;6.948;2023-12-07T00:58:05;24.35;;;10.32;;
79410;SDS011;69635;50.964;6.948;2023-12-07T01:00:30;20.05;;;9.75;;
79410;SDS011;69635;50.964;6.948;2023-12-07T01:02:55;19.17;;;9.47;;
79410;SDS011;69635;50.964;6.948;2023-12-07T01:05:21;21.38;;;9.30;;
79410;SDS011;69635;50.964;6.948;2023-12-07T01:07:46;18.92;;;10.38;;
79410;SDS011;69635;50.964;6.948;2023-12-07T01:10:11;22.90;;;10.50;;
79410;SDS011;69635;50.964;6.948;2023-12-07T01:12:37;25.15;;;9.90;;
79410;SDS011;69635;50.964;6.948;2023-12-07T01:15:02;22.43;;;10.67;;
79410;SDS011;69635;50.964;6.948;2023-12-07T01:17:27;27.15;;;10.73;;
79410;SDS011;69635;50.964;6.948;2023-12-07T01:19:53;24.40;;;10.60;;
79410;SDS011;69635;50.964;6.948;2023-12-07T01:22:18;24.20;;;11.43;;
79410;SDS011;69635;50.964;6.948;2023-12-07T01:24:43;24.47;;;10.10;;
79410;SDS011;69635;50.964;6.948;2023-12-07T01:27:09;22.92;;;10.18;;
79410;SDS011;69635;50.964;6.948;2023-12-07T01:29:34;21.83;;;10.37;;
79410;SDS011;69635;50.964;6.948;2023-12-07T01:31:59;24.73;;;10.27;;
79410;SDS011;69635;50.964;6.948;2023-12-07T01:34:24;24.70;;;11.23;;
79410;SDS011;69635;50.964;6.948;2023-12-07T01:36:50;24.90;;;11.07;;
79410;SDS011;69635;50.964;6.948;2023-12-07T01:39:15;31.52;;;12.15;;
79410;SDS011;69635;50.964;6.948;2023-12-07T01:41:40;24.63;;;11.15;;
79410;SDS011;69635;50.964;6.948;2023-12-07T01:44:06;25.33;;;11.57;;
79410;SDS011;69635;50.964;6.948;2023-12-07T01:46:31;26.70;;;12.17;;
79410;SDS011;69635;50.964;6.948;2023-12-07T01:48:57;30.42;;;12.52;;
79410;SDS011;69635;50.964;6.948;2023-12-07T01:51:22;27.30;;;11.30;;
79410;SDS011;69635;50.964;6.948;2023-12-07T01:53:48;27.30;;;11.03;;
79410;SDS011;69635;50.964;6.948;2023-12-07T01:56:14;24.40;;;11.18;;
79410;SDS011;69635;50.964;6.948;2023-12-07T01:58:41;27.33;;;11.48;;
79410;SDS011;69635;50.964;6.948;2023-12-07T02:01:06;24.75;;;11.15;;
79410;SDS011;69635;50.964;6.948;2023-12-07T02:03:31;29.30;;;11.77;;
79410;SDS011;69635;50.964;6.948;2023-12-07T02:05:57;35.75;;;11.60;;
79410;SDS011;69635;50.964;6.948;2023-12-07T02:08:23;29.30;;;11.98;;
79410;SDS011;69635;50.964;6.948;2023-12-07T02:10:48;24.50;;;11.53;;
79410;SDS011;69635;50.964;6.948;2023-12-07T02:13:13;27.73;;;12.53;;
79410;SDS011;69635;50.964;6.948;2023-12-07T02:15:39;29.50;;;11.52;;
79410;SDS011;69635;50.964;6.948;2023-12-07T02:23:01;24.67;;;11.25;;
79410;SDS011;69635;50.964;6.948;2023-12-07T02:25:40;28.67;;;11.88;;
79410;SDS011;69635;50.964;6.948;2023-12-07T02:28:09;23.75;;;10.30;;
79410;SDS011;69635;50.964;6.948;2023-12-07T02:30:34;28.03;;;11.40;;
79410;SDS011;69635;50.964;6.948;2023-12-07T02:32:59;27.40;;;11.73;;
79410;SDS011;69635;50.964;6.948;2023-12-07T02:35:25;24.10;;;11.35;;
79410;SDS011;69635;50.964;6.948;2023-12-07T02:37:50;29.00;;;11.73;;
79410;SDS011;69635;50.964;6.948;2023-12-07T02:40:23;31.17;;;12.55;;
79410;SDS011;69635;50.964;6.948;2023-12-07T02:42:50;25.45;;;11.45;;
79410;SDS011;69635;50.964;6.948;2023-12-07T02:45:16;28.80;;;12.82;;
79410;SDS011;69635;50.964;6.948;2023-12-07T02:47:41;25.63;;;10.87;;
79410;SDS011;69635;50.964;6.948;2023-12-07T02:50:08;24.00;;;10.95;;
79410;SDS011;69635;50.964;6.948;2023-12-07T02:52:34;29.38;;;11.65;;
79410;SDS011;69635;50.964;6.948;2023-12-07T02:54:59;25.73;;;10.68;;
79410;SDS011;69635;50.964;6.948;2023-12-07T02:57:25;25.97;;;12.40;;
79410;SDS011;69635;50.964;6.948;2023-12-07T02:59:50;25.00;;;12.10;;
79410;SDS011;69635;50.964;6.948;2023-12-07T03:02:15;22.00;;;11.67;;
79410;SDS011;69635;50.964;6.948;2023-12-07T03:04:40;25.70;;;11.70;;
79410;SDS011;69635;50.964;6.948;2023-12-07T03:07:05;23.37;;;10.10;;
79410;SDS011;69635;50.964;6.948;2023-12-07T03:09:31;26.42;;;11.30;;
79410;SDS011;69635;50.964;6.948;2023-12-07T03:11:56;31.98;;;11.93;;
79410;SDS011;69635;50.964;6.948;2023-12-07T03:14:21;29.50;;;13.57;;
79410;SDS011;69635;50.964;6.948;2023-12-07T03:16:47;22.98;;;10.85;;
79410;SDS011;69635;50.964;6.948;2023-12-07T03:19:12;26.10;;;12.07;;
79410;SDS011;69635;50.964;6.948;2023-12-07T03:21:41;24.93;;;11.90;;
79410;SDS011;69635;50.964;6.948;2023-12-07T03:26:33;23.02;;;10.18;;
79410;SDS011;69635;50.964;6.948;2023-12-07T03:28:58;23.37;;;10.57;;
79410;SDS011;69635;50.964;6.948;2023-12-07T03:31:23;24.05;;;11.10;;
79410;SDS011;69635;50.964;6.948;2023-12-07T03:33:49;22.43;;;10.33;;
79410;SDS011;69635;50.964;6.948;2023-12-07T03:36:14;27.70;;;11.73;;
79410;SDS011;69635;50.964;6.948;2023-12-07T03:38:39;25.15;;;11.85;;
79410;SDS011;69635;50.964;6.948;2023-12-07T03:41:04;29.43;;;10.90;;
79410;SDS011;69635;50.964;6.948;2023-12-07T03:43:30;20.80;;;10.15;;
79410;SDS011;69635;50.964;6.948;2023-12-07T03:45:55;24.23;;;9.88;;
79410;SDS011;69635;50.964;6.948;2023-12-07T03:48:20;21.07;;;9.47;;
79410;SDS011;69635;50.964;6.948;2023-12-07T03:50:46;17.80;;;9.13;;
79410;SDS011;69635;50.964;6.948;2023-12-07T03:53:11;22.50;;;10.43;;
79410;SDS011;69635;50.964;6.948;2023-12-07T03:55:37;26.65;;;10.80;;
79410;SDS011;69635;50.964;6.948;2023-12-07T03:58:02;20.23;;;9.80;;
79410;SDS011;69635;50.964;6.948;2023-12-07T04:00:28;21.13;;;9.40;;
79410;SDS011;69635;50.964;6.948;2023-12-07T04:02:53;22.90;;;9.83;;
79410;SDS011;69635;50.964;6.948;2023-12-07T04:05:18;20.90;;;9.33;;
79410;SDS011;69635;50.964;6.948;2023-12-07T04:07:43;21.33;;;9.43;;
79410;SDS011;69635;50.964;6.948;2023-12-07T04:10:09;17.90;;;8.27;;
79410;SDS011;69635;50.964;6.948;2023-12-07T04:12:34;27.50;;;8.93;;
79410;SDS011;69635;50.964;6.948;2023-12-07T04:14:59;20.50;;;9.13;;
79410;SDS011;69635;50.964;6.948;2023-12-07T04:17:25;17.20;;;9.20;;
79410;SDS011;69635;50.964;6.948;2023-12-07T04:19:50;16.53;;;9.07;;
79410;SDS011;69635;50.964;6.948;2023-12-07T04:22:15;18.60;;;8.52;;
79410;SDS011;69635;50.964;6.948;2023-12-07T04:24:41;16.90;;;8.23;;
79410;SDS011;69635;50.964;6.948;2023-12-07T04:27:06;18.03;;;8.13;;
79410;SDS011;69635;50.964;6.948;2023-12-07T04:29:31;16.42;;;7.70;;
79410;SDS011;69635;50.964;6.948;2023-12-07T04:31:57;17.42;;;8.77;;
79410;SDS011;69635;50.964;6.948;2023-12-07T04:34:22;15.43;;;9.03;;
79410;SDS011;69635;50.964;6.948;2023-12-07T04:36:47;18.17;;;7.93;;
79410;SDS011;69635;50.964;6.948;2023-12-07T04:39:12;18.27;;;8.17;;
79410;SDS011;69635;50.964;6.948;2023-12-07T04:41:38;18.38;;;8.35;;
79410;SDS011;69635;50.964;6.948;2023-12-07T04:44:03;19.60;;;8.23;;
79410;SDS011;69635;50.964;6.948;2023-12-07T04:46:28;16.63;;;7.93;;
79410;SDS011;69635;50.964;6.948;2023-12-07T04:48:54;18.50;;;9.07;;
79410;SDS011;69635;50.964;6.948;2023-12-07T04:51:19;18.40;;;8.02;;
79410;SDS011;69635;50.964;6.948;2023-12-07T04:53:44;16.13;;;8.80;;
79410;SDS011;69635;50.964;6.948;2023-12-07T04:56:09;17.50;;;7.97;;
79410;SDS011;69635;50.964;6.948;2023-12-07T04:58:35;14.18;;;6.70;;
79410;SDS011;69635;50.964;6.948;2023-12-07T05:01:00;21.42;;;9.23;;
79410;SDS011;69635;50.964;6.948;2023-12-07T05:03:26;17.02;;;8.82;;
79410;SDS011;69635;50.964;6.948;2023-12-07T05:05:51;15.80;;;7.20;;
79410;SDS011;69635;50.964;6.948;2023-12-07T05:08:16;18.17;;;9.57;;
79410;SDS011;69635;50.964;6.948;2023-12-07T05:10:43;17.63;;;8.70;;
79410;SDS011;69635;50.964;6.948;2023-12-07T05:13:08;17.30;;;8.13;;
79410;SDS011;69635;50.964;6.948;2023-12-07T05:15:33;16.70;;;8.23;;
79410;SDS011;69635;50.964;6.948;2023-12-07T05:17:59;14.95;;;7.90;;
79410;SDS011;69635;50.964;6.948;2023-12-07T05:20:24;16.20;;;8.50;;
79410;SDS011;69635;50.964;6.948;2023-12-07T05:22:51;16.30;;;6.75;;
79410;SDS011;69635;50.964;6.948;2023-12-07T05:25:16;16.67;;;7.70;;
79410;SDS011;69635;50.964;6.948;2023-12-07T05:27:42;14.82;;;6.95;;
79410;SDS011;69635;50.964;6.948;2023-12-07T05:30:07;16.07;;;7.23;;
79410;SDS011;69635;50.964;6.948;2023-12-07T05:32:33;16.98;;;7.68;;
79410;SDS011;69635;50.964;6.948;2023-12-07T05:34:58;14.40;;;7.10;;
79410;SDS011;69635;50.964;6.948;2023-12-07T05:37:24;15.55;;;7.30;;
79410;SDS011;69635;50.964;6.948;2023-12-07T05:39:49;17.17;;;7.50;;
79410;SDS011;69635;50.964;6.948;2023-12-07T05:42:14;13.70;;;7.37;;
79410;SDS011;69635;50.964;6.948;2023-12-07T05:44:39;14.93;;;7.67;;
79410;SDS011;69635;50.964;6.948;2023-12-07T05:47:05;17.13;;;7.13;;
79410;SDS011;69635;50.964;6.948;2023-12-07T05:49:30;13.70;;;7.07;;
79410;SDS011;69635;50.964;6.948;2023-12-07T05:51:55;13.30;;;6.17;;
79410;SDS011;69635;50.964;6.948;2023-12-07T05:54:21;13.95;;;7.32;;
79410;SDS011;69635;50.964;6.948;2023-12-07T05:56:47;11.48;;;6.50;;
79410;SDS011;69635;50.964;6.948;2023-12-07T05:59:12;15.05;;;7.32;;
79410;SDS011;69635;50.964;6.948;2023-12-07T06:01:38;14.57;;;6.78;;
79410;SDS011;69635;50.964;6.948;2023-12-07T06:04:03;12.87;;;7.00;;
79410;SDS011;69635;50.964;6.948;2023-12-07T06:06:28;14.95;;;6.97;;
79410;SDS011;69635;50.964;6.948;2023-12-07T06:08:54;17.83;;;6.67;;
79410;SDS011;69635;50.964;6.948;2023-12-07T06:11:19;16.03;;;7.33;;
79410;SDS011;69635;50.964;6.948;2023-12-07T06:13:44;15.37;;;6.83;;
79410;SDS011;69635;50.964;6.948;2023-12-07T06:16:12;16.03;;;6.70;;
79410;SDS011;69635;50.964;6.948;2023-12-07T06:18:38;12.77;;;7.00;;
79410;SDS011;69635;50.964;6.948;2023-12-07T06:21:04;15.57;;;6.90;;
79410;SDS011;69635;50.964;6.948;2023-12-07T06:23:29;15.25;;;7.00;;
79410;SDS011;69635;50.964;6.948;2023-12-07T06:25:54;19.33;;;7.53;;
79410;SDS011;69635;50.964;6.948;2023-12-07T06:28:20;17.30;;;6.53;;
79410;SDS011;69635;50.964;6.948;2023-12-07T06:30:45;13.73;;;7.37;;
79410;SDS011;69635;50.964;6.948;2023-12-07T06:33:10;18.23;;;7.80;;
79410;SDS011;69635;50.964;6.948;2023-12-07T06:35:35;16.38;;;8.13;;
79410;SDS011;69635;50.964;6.948;2023-12-07T06:38:01;17.90;;;7.77;;
79410;SDS011;69635;50.964;6.948;2023-12-07T06:40:27;16.15;;;7.05;;
79410;SDS011;69635;50.964;6.948;2023-12-07T06:42:52;19.17;;;6.63;;
79410;SDS011;69635;50.964;6.948;2023-12-07T06:45:17;16.87;;;8.10;;
79410;SDS011;69635;50.964;6.948;2023-12-07T06:47:42;20.97;;;8.00;;
79410;SDS011;69635;50.964;6.948;2023-12-07T06:50:08;16.50;;;7.25;;
79410;SDS011;69635;50.964;6.948;2023-12-07T06:52:35;19.08;;;8.77;;
79410;SDS011;69635;50.964;6.948;2023-12-07T06:55:00;20.10;;;7.93;;
79410;SDS011;69635;50.964;6.948;2023-12-07T06:57:25;16.00;;;7.10;;
79410;SDS011;69635;50.964;6.948;2023-12-07T06:59:51;13.37;;;6.93;;
79410;SDS011;69635;50.964;6.948;2023-12-07T07:02:16;16.33;;;7.60;;
79410;SDS011;69635;50.964;6.948;2023-12-07T07:04:41;15.70;;;7.23;;
79410;SDS011;69635;50.964;6.948;2023-12-07T07:07:06;18.10;;;8.03;;
79410;SDS011;69635;50.964;6.948;2023-12-07T07:09:32;21.23;;;6.80;;
79410;SDS011;69635;50.964;6.948;2023-12-07T07:11:57;18.37;;;7.90;;
79410;SDS011;69635;50.964;6.948;2023-12-07T07:14:22;19.73;;;8.60;;
79410;SDS011;69635;50.964;6.948;2023-12-07T07:16:47;20.90;;;8.27;;
79410;SDS011;69635;50.964;6.948;2023-12-07T07:19:13;18.80;;;8.07;;
79410;SDS011;69635;50.964;6.948;2023-12-07T07:21:38;17.52;;;7.85;;
79410;SDS011;69635;50.964;6.948;2023-12-07T07:24:03;19.17;;;7.70;;
79410;SDS011;69635;50.964;6.948;2023-12-07T07:26:29;14.30;;;6.23;;
79410;SDS011;69635;50.964;6.948;2023-12-07T07:28:54;20.60;;;8.00;;
79410;SDS011;69635;50.964;6.948;2023-12-07T07:31:19;23.03;;;8.77;;
79410;SDS011;69635;50.964;6.948;2023-12-07T07:33:44;20.15;;;8.05;;
79410;SDS011;69635;50.964;6.948;2023-12-07T07:36:12;14.05;;;6.90;;
79410;SDS011;69635;50.964;6.948;2023-12-07T07:38:38;23.15;;;7.57;;
79410;SDS011;69635;50.964;6.948;2023-12-07T07:41:03;16.10;;;7.43;;
79410;SDS011;69635;50.964;6.948;2023-12-07T07:43:28;14.18;;;7.32;;
79410;SDS011;69635;50.964;6.948;2023-12-07T07:45:54;20.07;;;8.17;;
79410;SDS011;69635;50.964;6.948;2023-12-07T07:48:19;20.25;;;8.07;;
79410;SDS011;69635;50.964;6.948;2023-12-07T07:50:44;16.73;;;7.03;;
79410;SDS011;69635;50.964;6.948;2023-12-07T07:53:10;19.50;;;8.68;;
79410;SDS011;69635;50.964;6.948;2023-12-07T07:55:35;15.47;;;7.50;;
79410;SDS011;69635;50.964;6.948;2023-12-07T07:58:00;16.97;;;7.97;;
79410;SDS011;69635;50.964;6.948;2023-12-07T08:00:26;19.37;;;7.50;;
79410;SDS011;69635;50.964;6.948;2023-12-07T08:02:51;15.07;;;7.60;;
79410;SDS011;69635;50.964;6.948;2023-12-07T08:05:16;14.95;;;7.75;;
79410;SDS011;69635;50.964;6.948;2023-12-07T08:07:41;18.43;;;8.40;;
79410;SDS011;69635;50.964;6.948;2023-12-07T08:10:07;18.98;;;8.23;;
79410;SDS011;69635;50.964;6.948;2023-12-07T08:12:33;16.75;;;7.60;;
79410;SDS011;69635;50.964;6.948;2023-12-07T08:14:58;18.40;;;7.27;;
79410;SDS011;69635;50.964;6.948;2023-12-07T08:17:24;13.70;;;5.70;;
79410;SDS011;69635;50.964;6.948;2023-12-07T08:19:51;16.13;;;7.10;;
79410;SDS011;69635;50.964;6.948;2023-12-07T08:22:16;11.43;;;6.13;;
79410;SDS011;69635;50.964;6.948;2023-12-07T08:24:41;19.60;;;7.43;;
79410;SDS011;69635;50.964;6.948;2023-12-07T08:27:06;17.03;;;8.43;;
79410;SDS011;69635;50.964;6.948;2023-12-07T08:29:32;16.40;;;7.83;;
79410;SDS011;69635;50.964;6.948;2023-12-07T08:31:57;20.83;;;8.13;;
79410;SDS011;69635;50.964;6.948;2023-12-07T08:34:22;16.67;;;8.33;;
79410;SDS011;69635;50.964;6.948;2023-12-07T08:36:49;16.60;;;7.18;;
79410;SDS011;69635;50.964;6.948;2023-12-07T08:39:14;14.67;;;7.17;;
79410;SDS011;69635;50.964;6.948;2023-12-07T08:41:39;22.27;;;8.93;;
79410;SDS011;69635;50.964;6.948;2023-12-07T08:44:05;17.57;;;7.90;;
79410;SDS011;69635;50.964;6.948;2023-12-07T08:46:30;17.63;;;8.20;;
79410;SDS011;69635;50.964;6.948;2023-12-07T08:48:55;18.00;;;7.57;;
79410;SDS011;69635;50.964;6.948;2023-12-07T08:51:21;17.85;;;8.35;;
79410;SDS011;69635;50.964;6.948;2023-12-07T08:53:46;17.23;;;7.05;;
79410;SDS011;69635;50.964;6.948;2023-12-07T08:56:11;18.30;;;8.30;;
79410;SDS011;69635;50.964;6.948;2023-12-07T08:58:38;17.50;;;8.95;;
79410;SDS011;69635;50.964;6.948;2023-12-07T09:01:03;16.88;;;8.73;;
79410;SDS011;69635;50.964;6.948;2023-12-07T09:03:28;19.75;;;8.93;;
79410;SDS011;69635;50.964;6.948;2023-12-07T09:05:56;16.45;;;7.43;;
79410;SDS011;69635;50.964;6.948;2023-12-07T09:08:22;17.05;;;8.23;;
79410;SDS011;69635;50.964;6.948;2023-12-07T09:10:48;17.88;;;9.13;;
79410;SDS011;69635;50.964;6.948;2023-12-07T09:13:17;19.85;;;8.25;;
79410;SDS011;69635;50.964;6.948;2023-12-07T09:15:42;17.98;;;8.70;;
79410;SDS011;69635;50.964;6.948;2023-12-07T09:18:08;17.92;;;8.80;;
79410;SDS011;69635;50.964;6.948;2023-12-07T09:20:33;17.03;;;8.00;;
79410;SDS011;69635;50.964;6.948;2023-12-07T09:22:58;17.87;;;8.63;;
79410;SDS011;69635;50.964;6.948;2023-12-07T09:25:23;16.10;;;8.90;;
79410;SDS011;69635;50.964;6.948;2023-12-07T09:27:52;25.35;;;9.52;;
79410;SDS011;69635;50.964;6.948;2023-12-07T09:30:17;26.60;;;10.57;;
79410;SDS011;69635;50.964;6.948;2023-12-07T09:32:43;18.80;;;9.97;;
79410;SDS011;69635;50.964;6.948;2023-12-07T09:35:08;14.33;;;7.47;;
79410;SDS011;69635;50.964;6.948;2023-12-07T09:37:43;16.15;;;8.63;;
79410;SDS011;69635;50.964;6.948;2023-12-07T09:40:13;24.58;;;9.88;;
79410;SDS011;69635;50.964;6.948;2023-12-07T09:42:39;23.10;;;9.93;;
79410;SDS011;69635;50.964;6.948;2023-12-07T09:45:06;18.98;;;8.73;;
79410;SDS011;69635;50.964;6.948;2023-12-07T09:47:31;22.73;;;9.18;;
79410;SDS011;69635;50.964;6.948;2023-12-07T09:49:57;18.30;;;9.88;;
79410;SDS011;69635;50.964;6.948;2023-12-07T09:52:23;16.27;;;8.95;;
79410;SDS011;69635;50.964;6.948;2023-12-07T09:54:48;17.57;;;8.63;;
79410;SDS011;69635;50.964;6.948;2023-12-07T09:57:15;17.83;;;7.75;;
79410;SDS011;69635;50.964;6.948;2023-12-07T09:59:40;19.10;;;8.77;;
79410;SDS011;69635;50.964;6.948;2023-12-07T10:02:06;22.95;;;8.90;;
79410;SDS011;69635;50.964;6.948;2023-12-07T10:04:32;23.45;;;9.40;;
79410;SDS011;69635;50.964;6.948;2023-12-07T10:06:58;19.23;;;8.20;;
79410;SDS011;69635;50.964;6.948;2023-12-07T10:09:23;18.23;;;8.87;;
79410;SDS011;69635;50.964;6.948;2023-12-07T10:11:49;21.95;;;9.15;;
79410;SDS011;69635;50.964;6.948;2023-12-07T10:14:14;21.90;;;8.47;;
79410;SDS011;69635;50.964;6.948;2023-12-07T10:16:51;21.20;;;8.93;;
79410;SDS011;69635;50.964;6.948;2023-12-07T10:19:17;15.18;;;6.95;;
79410;SDS011;69635;50.964;6.948;2023-12-07T10:21:46;18.08;;;8.63;;
79410;SDS011;69635;50.964;6.948;2023-12-07T10:24:12;15.07;;;6.68;;
79410;SDS011;69635;50.964;6.948;2023-12-07T10:26:37;16.17;;;7.65;;
79410;SDS011;69635;50.964;6.948;2023-12-07T10:29:07;14.93;;;6.63;;
79410;SDS011;69635;50.964;6.948;2023-12-07T10:31:32;20.17;;;8.45;;
79410;SDS011;69635;50.964;6.948;2023-12-07T10:34:01;19.95;;;8.23;;
79410;SDS011;69635;50.964;6.948;2023-12-07T10:36:26;16.58;;;7.47;;
79410;SDS011;69635;50.964;6.948;2023-12-07T10:38:52;17.33;;;7.68;;
79410;SDS011;69635;50.964;6.948;2023-12-07T10:41:18;17.50;;;7.63;;
79410;SDS011;69635;50.964;6.948;2023-12-07T10:43:44;21.35;;;7.82;;
79410;SDS011;69635;50.964;6.948;2023-12-07T10:46:14;15.07;;;6.85;;
79410;SDS011;69635;50.964;6.948;2023-12-07T10:48:41;14.57;;;6.10;;
79410;SDS011;69635;50.964;6.948;2023-12-07T10:51:08;15.25;;;5.90;;
79410;SDS011;69635;50.964;6.948;2023-12-07T10:53:37;13.35;;;6.55;;
79410;SDS011;69635;50.964;6.948;2023-12-07T10:56:10;8.68;;;4.65;;
79410;SDS011;69635;50.964;6.948;2023-12-07T10:58:35;17.20;;;7.50;;
79410;SDS011;69635;50.964;6.948;2023-12-07T11:01:01;14.98;;;6.93;;
79410;SDS011;69635;50.964;6.948;2023-12-07T11:03:26;16.33;;;7.85;;
79410;SDS011;69635;50.964;6.948;2023-12-07T11:05:54;13.18;;;6.03;;
79410;SDS011;69635;50.964;6.948;2023-12-07T11:13:17;13.63;;;6.30;;
79410;SDS011;69635;50.964;6.948;2023-12-07T11:15:43;14.30;;;6.15;;
79410;SDS011;69635;50.964;6.948;2023-12-07T11:18:09;17.58;;;7.15;;
79410;SDS011;69635;50.964;6.948;2023-12-07T11:20:41;12.50;;;6.43;;
79410;SDS011;69635;50.964;6.948;2023-12-07T11:23:07;14.07;;;6.88;;
79410;SDS011;69635;50.964;6.948;2023-12-07T11:25:33;11.75;;;5.13;;
79410;SDS011;69635;50.964;6.948;2023-12-07T11:28:02;11.40;;;6.23;;
79410;SDS011;69635;50.964;6.948;2023-12-07T11:30:30;8.75;;;4.35;;
79410;SDS011;69635;50.964;6.948;2023-12-07T11:32:55;17.30;;;6.68;;
79410;SDS011;69635;50.964;6.948;2023-12-07T11:35:20;14.77;;;6.68;;
79410;SDS011;69635;50.964;6.948;2023-12-07T11:37:59;11.93;;;6.07;;
79410;SDS011;69635;50.964;6.948;2023-12-07T11:40:25;11.40;;;5.88;;
79410;SDS011;69635;50.964;6.948;2023-12-07T11:42:52;15.77;;;7.53;;
79410;SDS011;69635;50.964;6.948;2023-12-07T11:45:35;12.65;;;6.30;;
79410;SDS011;69635;50.964;6.948;2023-12-07T11:48:07;18.23;;;6.53;;
79410;SDS011;69635;50.964;6.948;2023-12-07T11:50:33;14.45;;;6.20;;
79410;SDS011;69635;50.964;6.948;2023-12-07T11:52:58;14.00;;;6.10;;
79410;SDS011;69635;50.964;6.948;2023-12-07T11:55:24;16.02;;;7.00;;
79410;SDS011;69635;50.964;6.948;2023-12-07T11:57:49;14.27;;;6.93;;
79410;SDS011;69635;50.964;6.948;2023-12-07T12:00:15;15.95;;;7.93;;
79410;SDS011;69635;50.964;6.948;2023-12-07T12:02:40;10.23;;;5.85;;
79410;SDS011;69635;50.964;6.948;2023-12-07T12:05:05;9.30;;;5.67;;
79410;SDS011;69635;50.964;6.948;2023-12-07T12:07:31;13.57;;;5.90;;
79410;SDS011;69635;50.964;6.948;2023-12-07T12:09:56;12.47;;;6.13;;
79410;SDS011;69635;50.964;6.948;2023-12-07T12:12:21;13.03;;;6.83;;
79410;SDS011;69635;50.964;6.948;2023-12-07T12:14:46;10.77;;;5.17;;
79410;SDS011;69635;50.964;6.948;2023-12-07T12:17:14;10.17;;;5.57;;
79410;SDS011;69635;50.964;6.948;2023-12-07T12:19:39;11.52;;;6.35;;
79410;SDS011;69635;50.964;6.948;2023-12-07T12:22:05;11.23;;;7.17;;
79410;SDS011;69635;50.964;6.948;2023-12-07T12:24:31;14.10;;;6.60;;
79410;SDS011;69635;50.964;6.948;2023-12-07T12:26:57;13.15;;;5.82;;
79410;SDS011;69635;50.964;6.948;2023-12-07T12:29:22;9.95;;;5.57;;
79410;SDS011;69635;50.964;6.948;2023-12-07T12:31:47;10.73;;;5.85;;
79410;SDS011;69635;50.964;6.948;2023-12-07T12:34:13;12.83;;;6.17;;
79410;SDS011;69635;50.964;6.948;2023-12-07T12:36:38;15.97;;;5.33;;
79410;SDS011;69635;50.964;6.948;2023-12-07T12:39:03;14.23;;;6.23;;
79410;SDS011;69635;50.964;6.948;2023-12-07T12:41:33;10.23;;;4.25;;
79410;SDS011;69635;50.964;6.948;2023-12-07T12:43:58;12.70;;;6.43;;
79410;SDS011;69635;50.964;6.948;2023-12-07T12:46:24;9.95;;;5.47;;
79410;SDS011;69635;50.964;6.948;2023-12-07T12:48:53;11.25;;;6.07;;
79410;SDS011;69635;50.964;6.948;2023-12-07T12:51:20;9.70;;;4.28;;
79410;SDS011;69635;50.964;6.948;2023-12-07T12:53:46;10.57;;;5.20;;
79410;SDS011;69635;50.964;6.948;2023-12-07T12:56:12;12.10;;;5.88;;
79410;SDS011;69635;50.964;6.948;2023-12-07T12:58:37;10.00;;;4.70;;
79410;SDS011;69635;50.964;6.948;2023-12-07T13:01:03;11.23;;;4.63;;
79410;SDS011;69635;50.964;6.948;2023-12-07T13:03:28;10.90;;;5.55;;
79410;SDS011;69635;50.964;6.948;2023-12-07T13:05:54;11.07;;;5.40;;
79410;SDS011;69635;50.964;6.948;2023-12-07T13:08:19;12.15;;;6.03;;
79410;SDS011;69635;50.964;6.948;2023-12-07T13:10:44;13.43;;;5.77;;
79410;SDS011;69635;50.964;6.948;2023-12-07T13:13:09;11.43;;;5.23;;
79410;SDS011;69635;50.964;6.948;2023-12-07T13:15:34;11.73;;;5.23;;
79410;SDS011;69635;50.964;6.948;2023-12-07T13:18:00;11.00;;;5.07;;
79410;SDS011;69635;50.964;6.948;2023-12-07T13:20:25;8.80;;;5.00;;
79410;SDS011;69635;50.964;6.948;2023-12-07T13:22:50;8.48;;;4.65;;
79410;SDS011;69635;50.964;6.948;2023-12-07T13:25:16;8.80;;;3.97;;
79410;SDS011;69635;50.964;6.948;2023-12-07T13:27:41;9.60;;;4.53;;
79410;SDS011;69635;50.964;6.948;2023-12-07T13:30:08;9.43;;;5.00;;
79410;SDS011;69635;50.964;6.948;2023-12-07T13:32:34;10.80;;;5.15;;
79410;SDS011;69635;50.964;6.948;2023-12-07T13:35:02;11.73;;;4.97;;
79410;SDS011;69635;50.964;6.948;2023-12-07T13:37:27;8.02;;;4.82;;
79410;SDS011;69635;50.964;6.948;2023-12-07T13:39:52;7.57;;;3.90;;
79410;SDS011;69635;50.964;6.948;2023-12-07T13:42:23;9.10;;;4.38;;
79410;SDS011;69635;50.964;6.948;2023-12-07T13:44:51;10.85;;;5.28;;
79410;SDS011;69635;50.964;6.948;2023-12-07T13:47:19;8.02;;;4.30;;
79410;SDS011;69635;50.964;6.948;2023-12-07T13:49:48;7.40;;;4.20;;
79410;SDS011;69635;50.964;6.948;2023-12-07T13:52:14;7.78;;;3.55;;
79410;SDS011;69635;50.964;6.948;2023-12-07T13:54:41;9.35;;;3.88;;
79410;SDS011;69635;50.964;6.948;2023-12-07T13:57:06;9.10;;;4.57;;
79410;SDS011;69635;50.964;6.948;2023-12-07T13:59:32;12.15;;;4.60;;
79410;SDS011;69635;50.964;6.948;2023-12-07T14:01:57;11.77;;;4.83;;
79410;SDS011;69635;50.964;6.948;2023-12-07T14:04:24;6.82;;;4.22;;
79410;SDS011;69635;50.964;6.948;2023-12-07T14:06:49;5.50;;;3.40;;
79410;SDS011;69635;50.964;6.948;2023-12-07T14:09:16;10.02;;;4.20;;
79410;SDS011;69635;50.964;6.948;2023-12-07T14:11:43;8.93;;;4.68;;
79410;SDS011;69635;50.964;6.948;2023-12-07T14:14:08;8.40;;;4.47;;
79410;SDS011;69635;50.964;6.948;2023-12-07T14:16:33;8.20;;;4.50;;
79410;SDS011;69635;50.964;6.948;2023-12-07T14:18:58;5.43;;;3.70;;
79410;SDS011;69635;50.964;6.948;2023-12-07T14:21:24;9.50;;;4.33;;
79410;SDS011;69635;50.964;6.948;2023-12-07T14:23:50;8.77;;;4.72;;
79410;SDS011;69635;50.964;6.948;2023-12-07T14:26:15;7.38;;;4.20;;
79410;SDS011;69635;50.964;6.948;2023-12-07T14:28:40;8.00;;;4.30;;
79410;SDS011;69635;50.964;6.948;2023-12-07T14:31:07;8.38;;;4.13;;
79410;SDS011;69635;50.964;6.948;2023-12-07T14:33:36;7.72;;;3.22;;
79410;SDS011;69635;50.964;6.948;2023-12-07T14:36:01;8.53;;;4.07;;
79410;SDS011;69635;50.964;6.948;2023-12-07T14:38:26;9.35;;;4.43;;